Ana Sayfa
METAR-TAF:

METAR-TAF

Havaalanları :

Batam, Endonezya

Enlem: 01-07-15N, Boylam: 104-07-07E, yükseklik: 38 m

Güncel hava durumu gözlemi

Rapor saat 15:00 UTC de 2 saat ve 20 dakika önce yapıldı.
Rüzgar güneydan 3 kt
Sıcaklık 27°C
Nem 84%
Basınç 1011 hPa
Görüş mesafesi 10 km veya daha fazla
1400 ft yükseklikte az bulutlu

METAR: WIDD 161500Z 19003KT 9999 FEW014 27/24 Q1011 NOSIG

Saat: 00:20 (17:20 UTC)

Tahmin

Rapor saat 11:00 UTC de 6 saat ve 20 dakika önce yapıldı.
Ayın 16'si saat 12 UTC'den ayın 17'si saat 12 UTC'ye kadar geçerli Tahmin
Rüzgar güney/güneydoğudan 8 kt
Görüş mesafesi 10 km veya daha fazla
1400 ft yükseklikte parçalı bulutlu
Dönüşüyor
ayın 16'si saat 13 UTC'den ayın 16'si saat 14 UTC'ye kadar
Rüzgar güney/güneydoğudan 3 kt
1400 ft yükseklikte az bulutlu

TAF: WIDD 161100Z 1612/1712 15008KT 9999 SCT014 BECMG 1613/1614 16003KT FEW014

4.000'den fazla havaalanı için hava durumu gözlemleri ve tahminleri (METAR ve TAF raporları).

Kullanılabilir istasyonlar harita üzerinde sarı ve kırmızı noktalarla gösterilir.

İstasyonun adını görmek için fareyi noktanın üzerinde gezdirin.

Sonrasında hava gözlem ve tahminlerini görmek için tıklayın.

Haritayı değiştirmek için: yaklaştırmak için siyah artı işaretli yeşil düğmeye ve uzaklaştırmak için de eksi işaretli düğmeye hızla tıklayın; bitişik haritalar için yeşil okları kullanın.


METAR-TAF: